Impacts METAR Board INFO
IDs:

KPNS - Pensacola Intl, FL, US

Updated at: 0554 UTC 25 Feb 2018
Potential Impact None Slight Moderate High
Time24/17Z 24/18Z 24/19Z 24/20Z 24/21Z 24/22Z 24/23Z 25/00Z 25/01Z 25/02Z 25/03Z 25/04Z 25/05Z
VIS10 10 10 10 10 10 10 10 10 10 10 10 10
CIG9 9 33 29 30 -- -- -- 27 27 29 30 32
CoverBKNBKNBKNBKNBKNSCTSCTCLROVCOVCOVCOVCOVC
FltCatIFRIFRVFRMVFRMVFRVFRVFRVFRMVFRMVFRMVFRMVFRVFR
WX--------------------------
WDir150160160150160150170160160150160160170
WSpd15 15 16 14 14 12 11 11 10 9 9 8 9
WGst20 -- 24 -- -- -- -- -- -- -- -- -- --
Raw hourly METARs
KPNS 241653Z 15015G20KT 10SM BKN009 26/21 A3017 RMK AO2 SLP217 T02560206
KPNS 241753Z 16015KT 10SM BKN009 BKN030 26/21 A3015 RMK AO2 SLP209 T02560206 10261 20211 58009
KPNS 241900Z 16016G24KT 10SM SCT012 SCT020 BKN033 26/20 A3011 RMK AO2 T02560200
KPNS 242000Z 15014KT 10SM BKN029 26/20 A3008 RMK AO2 T02610200
KPNS 242053Z 16014KT 10SM SCT026 BKN030 BKN036 24/20 A3008 RMK AO2 SLP187 T02440200 56024
KPNS 242153Z 15012KT 10SM FEW032 SCT065 25/19 A3006 RMK AO2 SLP181 T02500194
KPNS 242253Z 17011KT 10SM SCT022 24/19 A3005 RMK AO2 SLP178 T02440194
KPNS 242353Z 16011KT 10SM CLR 23/20 A3006 RMK AO2 SLP180 T02280200 10267 20228 55006
KPNS 250053Z 16010KT 10SM BKN027 OVC032 23/21 A3007 RMK AO2 SLP185 T02280206
KPNS 250153Z 15009KT 10SM SCT013 OVC027 23/21 A3009 RMK AO2 SLP191 T02280206
KPNS 250253Z 16009KT 10SM FEW006 SCT024 OVC029 22/21 A3009 RMK AO2 SLP191 T02220206 51010
KPNS 250353Z 16008KT 10SM FEW022 BKN030 OVC043 22/21 A3009 RMK AO2 SLP191 T02220206
KPNS 250453Z 17009KT 10SM SCT023 BKN032 OVC043 23/21 A3009 RMK AO2 SLP191 T02280206